Time;durP1;ratioP1;P1;durP2;ratioP2;P2;SDS_P1;SDS_P2;PMS_P1;PMS_P2;Temp;Humidity;BMP_temperature;BMP_pressure;BME280_temperature;BME280_humidity;BME280_pressure;Samples;Min_cycle;Max_cycle;Signal;HPM_P1;HPM_P2
2021/07/23 00:02:07;;;;;;;;;;;26.70;51.10;;;;;;5083781;28;19970;-66
2021/07/23 00:04:32;;;;;;;;;;;26.70;51.10;;;;;;5103274;28;19916;-64
2021/07/23 00:06:58;;;;;;;;;;;26.70;51.10;;;;;;5088471;28;20351;-65
2021/07/23 00:09:23;;;;;;;;;;;26.70;51.10;;;;;;5088088;28;20001;-63
2021/07/23 00:11:49;;;;;;;;;;;26.70;51.10;;;;;;5088191;28;20026;-62
2021/07/23 00:14:14;;;;;;;;;;;26.70;51.10;;;;;;5090566;28;19922;-63
2021/07/23 00:16:40;;;;;;;;;;;26.70;51.10;;;;;;5090059;28;19915;-63
2021/07/23 00:19:05;;;;;;;;;;;26.70;51.10;;;;;;5071049;28;19912;-63
2021/07/23 00:21:31;;;;;;;;;;;26.70;51.10;;;;;;5086973;28;19947;-62
2021/07/23 00:23:56;;;;;;;;;;;26.70;51.10;;;;;;5072230;28;19943;-64
2021/07/23 00:26:22;;;;;;;;;;;26.70;51.10;;;;;;5093247;28;19912;-65
2021/07/23 00:28:47;;;;;;;;;;;26.60;51.10;;;;;;5072236;28;19975;-62
2021/07/23 00:31:13;;;;;;;;;;;26.70;51.20;;;;;;5065842;28;19912;-63
2021/07/23 00:33:39;;;;;;;;;;;26.70;51.20;;;;;;5085142;28;19920;-62
2021/07/23 00:36:04;;;;;;;;;;;26.60;51.10;;;;;;5080128;28;19908;-62
2021/07/23 00:38:30;;;;;;;;;;;26.70;51.20;;;;;;5072847;28;19908;-62
2021/07/23 00:40:55;;;;;;;;;;;26.70;51.20;;;;;;5057121;28;19924;-65
2021/07/23 00:43:21;;;;;;;;;;;26.70;51.20;;;;;;5079352;28;19924;-64
2021/07/23 00:45:47;;;;;;;;;;;26.60;51.20;;;;;;5070643;28;19912;-63
2021/07/23 00:48:13;;;;;;;;;;;26.70;51.20;;;;;;5091025;28;19934;-63
2021/07/23 00:50:39;;;;;;;;;;;26.60;51.10;;;;;;5068579;28;19931;-62
2021/07/23 00:53:05;;;;;;;;;;;26.70;51.20;;;;;;5076946;28;20021;-62
2021/07/23 00:55:31;;;;;;;;;;;26.60;51.20;;;;;;5071059;28;19916;-66
2021/07/23 00:57:57;;;;;;;;;;;26.70;51.20;;;;;;5069815;28;19916;-63
2021/07/23 01:00:23;;;;;;;;;;;26.60;51.20;;;;;;5085000;28;19938;-64
2021/07/23 01:02:50;;;;;;;;;;;26.60;51.20;;;;;;5069699;28;20296;-62
2021/07/23 01:05:15;;;;;;;;;;;26.60;51.20;;;;;;5063629;28;19969;-63
2021/07/23 01:07:41;;;;;;;;;;;26.60;51.20;;;;;;5055412;28;19923;-65
2021/07/23 01:10:06;;;;;;;;;;;26.60;51.30;;;;;;5051247;28;19913;-63
2021/07/23 01:12:33;;;;;;;;;;;26.60;51.20;;;;;;5070300;28;19909;-64
2021/07/23 01:14:59;;;;;;;;;;;26.60;51.20;;;;;;5064480;28;19908;-66
2021/07/23 01:17:25;;;;;;;;;;;26.60;51.20;;;;;;5056460;28;19992;-63
2021/07/23 01:20:04;;;;;;;;;;;26.60;51.20;;;;;;5066951;28;19966;-66
2021/07/23 01:22:30;;;;;;;;;;;26.50;51.20;;;;;;5047196;28;19909;-65
2021/07/23 01:24:57;;;;;;;;;;;26.60;51.30;;;;;;5058804;28;19919;-63
2021/07/23 01:27:24;;;;;;;;;;;26.60;51.30;;;;;;5065879;28;19915;-64
2021/07/23 01:29:49;;;;;;;;;;;26.60;51.30;;;;;;5043235;28;19966;-62
2021/07/23 01:32:14;;;;;;;;;;;26.60;51.30;;;;;;5085766;28;19947;-62
2021/07/23 01:34:40;;;;;;;;;;;26.60;51.30;;;;;;5088746;28;19930;-62
2021/07/23 01:37:06;;;;;;;;;;;26.60;51.30;;;;;;5069089;28;19977;-62
2021/07/23 01:39:34;;;;;;;;;;;26.60;51.90;;;;;;5088508;28;19916;-64
2021/07/23 01:42:00;;;;;;;;;;;26.50;51.30;;;;;;5086490;28;19919;-63
2021/07/23 01:44:25;;;;;;;;;;;26.50;51.30;;;;;;5063427;28;19912;-63
2021/07/23 01:46:51;;;;;;;;;;;26.50;51.30;;;;;;5086568;28;20277;-63
2021/07/23 01:49:16;;;;;;;;;;;26.50;51.30;;;;;;5080521;28;19989;-65
2021/07/23 01:51:42;;;;;;;;;;;26.50;51.30;;;;;;5083401;28;19912;-66
2021/07/23 01:54:07;;;;;;;;;;;26.50;51.30;;;;;;5088487;28;19938;-63
2021/07/23 01:56:33;;;;;;;;;;;26.50;51.30;;;;;;5086547;28;19908;-63
2021/07/23 01:58:58;;;;;;;;;;;26.50;51.30;;;;;;5088063;28;19965;-61
2021/07/23 02:01:23;;;;;;;;;;;26.50;51.30;;;;;;5068427;28;19923;-65
2021/07/23 02:03:49;;;;;;;;;;;26.50;51.30;;;;;;5086505;28;19915;-62
2021/07/23 02:06:15;;;;;;;;;;;26.50;51.30;;;;;;5085216;28;19912;-63
2021/07/23 02:08:41;;;;;;;;;;;26.50;51.30;;;;;;5059352;28;20687;-64
2021/07/23 02:11:06;;;;;;;;;;;26.50;51.30;;;;;;5085605;28;19912;-64
2021/07/23 02:13:32;;;;;;;;;;;26.50;51.30;;;;;;5084400;28;20283;-62
2021/07/23 02:15:57;;;;;;;;;;;26.50;51.30;;;;;;5082151;28;19989;-62
2021/07/23 02:18:23;;;;;;;;;;;26.40;51.20;;;;;;5068991;28;20266;-64
2021/07/23 02:20:48;;;;;;;;;;;26.40;51.30;;;;;;5083492;28;19912;-61
2021/07/23 02:23:14;;;;;;;;;;;26.40;51.30;;;;;;5086906;28;19908;-64
2021/07/23 02:25:39;;;;;;;;;;;26.50;51.30;;;;;;5068825;28;20039;-61
2021/07/23 02:28:05;;;;;;;;;;;26.40;51.30;;;;;;5085022;28;19918;-62
2021/07/23 02:30:30;;;;;;;;;;;26.40;51.30;;;;;;5085697;28;20011;-64
2021/07/23 02:32:56;;;;;;;;;;;26.40;51.20;;;;;;5082810;28;19912;-66
2021/07/23 02:35:21;;;;;;;;;;;26.40;51.20;;;;;;5085397;28;19955;-64
2021/07/23 02:37:47;;;;;;;;;;;26.40;51.80;;;;;;5066060;28;19911;-64
2021/07/23 02:40:12;;;;;;;;;;;26.40;51.30;;;;;;5080781;28;20379;-64
2021/07/23 02:42:38;;;;;;;;;;;26.40;51.30;;;;;;5084470;28;19965;-62
2021/07/23 02:45:04;;;;;;;;;;;26.40;51.30;;;;;;5085289;28;19923;-63
2021/07/23 02:47:29;;;;;;;;;;;26.40;51.30;;;;;;5086675;28;19912;-64
2021/07/23 02:49:55;;;;;;;;;;;26.40;51.30;;;;;;5096975;28;19927;-65
2021/07/23 02:52:20;;;;;;;;;;;26.40;51.30;;;;;;5085004;28;20015;-63
2021/07/23 02:54:46;;;;;;;;;;;26.40;51.30;;;;;;5087653;28;20297;-63
2021/07/23 02:57:11;;;;;;;;;;;26.40;51.40;;;;;;5085409;28;20354;-62
2021/07/23 02:59:37;;;;;;;;;;;26.40;51.40;;;;;;5085810;28;19912;-64
2021/07/23 03:02:03;;;;;;;;;;;26.40;51.40;;;;;;5066662;28;20418;-65
2021/07/23 03:04:28;;;;;;;;;;;26.30;51.40;;;;;;5069083;28;20379;-64
2021/07/23 03:06:54;;;;;;;;;;;26.30;51.30;;;;;;5086057;28;19904;-61
2021/07/23 03:09:19;;;;;;;;;;;26.30;51.30;;;;;;5087471;28;19930;-61
2021/07/23 03:11:45;;;;;;;;;;;26.30;51.30;;;;;;5084394;28;19993;-64
2021/07/23 03:14:10;;;;;;;;;;;26.30;51.30;;;;;;5085741;28;19912;-66
2021/07/23 03:16:36;;;;;;;;;;;26.30;51.30;;;;;;5087718;28;19912;-65
2021/07/23 03:19:01;;;;;;;;;;;26.40;51.40;;;;;;5087885;28;19911;-64
2021/07/23 03:21:27;;;;;;;;;;;26.30;51.30;;;;;;5086904;28;19907;-62
2021/07/23 03:23:52;;;;;;;;;;;26.30;51.30;;;;;;5083522;28;20294;-62
2021/07/23 03:26:19;;;;;;;;;;;26.30;51.30;;;;;;5088276;28;19908;-61
2021/07/23 03:28:45;;;;;;;;;;;26.30;51.30;;;;;;5070354;28;19931;-65
2021/07/23 03:31:12;;;;;;;;;;;26.30;51.40;;;;;;5089457;28;19916;-62
2021/07/23 03:33:37;;;;;;;;;;;26.30;51.40;;;;;;5093019;28;19945;-63
2021/07/23 03:36:03;;;;;;;;;;;26.30;51.40;;;;;;5092108;28;19916;-66
2021/07/23 03:38:28;;;;;;;;;;;26.30;51.40;;;;;;5093015;28;19931;-63
2021/07/23 03:40:54;;;;;;;;;;;26.30;51.40;;;;;;5083703;28;20295;-64
2021/07/23 03:43:19;;;;;;;;;;;26.30;51.40;;;;;;5089800;28;19911;-62
2021/07/23 03:45:45;;;;;;;;;;;26.20;51.30;;;;;;5091645;28;19985;-62
2021/07/23 03:48:10;;;;;;;;;;;26.20;51.40;;;;;;5096071;28;20389;-63
2021/07/23 03:50:36;;;;;;;;;;;26.20;51.00;;;;;;5072636;28;20846;-66
2021/07/23 03:53:01;;;;;;;;;;;26.20;49.40;;;;;;5063705;28;20050;-61
2021/07/23 03:55:30;;;;;;;;;;;26.10;48.90;;;;;;5085436;28;19908;-64
2021/07/23 03:57:55;;;;;;;;;;;26.10;47.90;;;;;;5082003;28;19919;-61
2021/07/23 04:00:21;;;;;;;;;;;26.00;46.30;;;;;;5082599;28;19968;-62
2021/07/23 04:02:48;;;;;;;;;;;25.90;46.50;;;;;;5089074;28;20371;-65
2021/07/23 04:05:13;;;;;;;;;;;25.90;45.90;;;;;;5089943;28;20537;-61
2021/07/23 04:07:39;;;;;;;;;;;25.80;45.40;;;;;;5084493;28;19908;-61
2021/07/23 04:10:04;;;;;;;;;;;25.60;45.70;;;;;;5083863;28;20335;-63
2021/07/23 04:12:30;;;;;;;;;;;25.60;46.00;;;;;;5072957;28;19966;-61
2021/07/23 04:14:55;;;;;;;;;;;25.60;45.90;;;;;;5067653;28;20029;-63
2021/07/23 04:17:21;;;;;;;;;;;25.60;46.20;;;;;;5088364;28;20334;-61
2021/07/23 04:19:46;;;;;;;;;;;25.60;46.70;;;;;;5084183;28;19947;-63
2021/07/23 04:22:12;;;;;;;;;;;25.60;46.70;;;;;;5069171;28;19912;-64
2021/07/23 04:24:38;;;;;;;;;;;25.50;46.70;;;;;;5078274;28;19912;-63
2021/07/23 04:27:03;;;;;;;;;;;25.50;46.60;;;;;;5069847;28;20042;-62
2021/07/23 04:29:29;;;;;;;;;;;25.50;46.60;;;;;;5083729;28;19908;-62
2021/07/23 04:31:54;;;;;;;;;;;25.40;46.50;;;;;;5084123;28;19919;-62
2021/07/23 04:34:20;;;;;;;;;;;25.40;46.10;;;;;;5089302;28;20571;-63
2021/07/23 04:36:45;;;;;;;;;;;25.20;45.90;;;;;;5068072;28;19922;-62
2021/07/23 04:39:11;;;;;;;;;;;25.10;46.70;;;;;;5082703;28;19931;-65
2021/07/23 04:41:36;;;;;;;;;;;25.20;47.00;;;;;;5083054;28;19996;-64
2021/07/23 04:44:02;;;;;;;;;;;25.20;46.90;;;;;;5083299;28;19947;-63
2021/07/23 04:46:27;;;;;;;;;;;25.20;46.80;;;;;;5083723;28;19915;-62
2021/07/23 04:48:53;;;;;;;;;;;25.20;46.60;;;;;;5082566;28;19962;-64
2021/07/23 04:51:18;;;;;;;;;;;25.10;46.90;;;;;;5061335;28;19974;-61
2021/07/23 04:53:44;;;;;;;;;;;25.10;47.20;;;;;;5068551;28;19938;-65
2021/07/23 04:56:14;;;;;;;;;;;25.10;47.20;;;;;;5084211;28;19908;-66
2021/07/23 04:58:40;;;;;;;;;;;25.10;47.20;;;;;;5080320;28;19958;-61
2021/07/23 05:01:05;;;;;;;;;;;25.10;47.30;;;;;;5083586;28;19916;-63
2021/07/23 05:03:34;;;;;;;;;;;25.10;47.20;;;;;;5083325;28;19928;-65
2021/07/23 05:06:00;;;;;;;;;;;25.10;47.50;;;;;;5081083;28;19966;-67
2021/07/23 05:08:27;;;;;;;;;;;25.00;47.70;;;;;;5063521;28;19909;-63
2021/07/23 05:10:52;;;;;;;;;;;25.00;48.40;;;;;;5084394;28;19915;-68
2021/07/23 05:13:19;;;;;;;;;;;25.10;48.10;;;;;;5083956;28;19973;-63
2021/07/23 05:15:45;;;;;;;;;;;25.10;48.00;;;;;;5085534;28;19919;-62
2021/07/23 05:18:10;;;;;;;;;;;25.10;48.40;;;;;;5085478;28;19911;-64
2021/07/23 05:20:37;;;;;;;;;;;25.10;48.20;;;;;;5084184;28;20343;-63
2021/07/23 05:23:02;;;;;;;;;;;25.10;48.30;;;;;;5083819;28;20296;-65
2021/07/23 05:25:28;;;;;;;;;;;25.10;48.30;;;;;;5090316;28;20017;-68
2021/07/23 05:27:54;;;;;;;;;;;25.10;48.40;;;;;;5082248;28;19919;-63
2021/07/23 05:30:20;;;;;;;;;;;25.10;49.00;;;;;;5080900;28;19907;-64
2021/07/23 05:32:45;;;;;;;;;;;25.00;49.50;;;;;;5081818;28;20380;-62
2021/07/23 05:35:11;;;;;;;;;;;25.00;49.50;;;;;;5075272;28;19924;-65
2021/07/23 05:37:36;;;;;;;;;;;25.00;49.80;;;;;;5083959;28;19908;-64
2021/07/23 05:40:02;;;;;;;;;;;25.00;50.10;;;;;;5064091;28;20032;-65
2021/07/23 05:42:27;;;;;;;;;;;24.90;50.10;;;;;;5081155;28;19920;-64
2021/07/23 05:44:53;;;;;;;;;;;24.90;50.20;;;;;;5086084;28;20346;-65
2021/07/23 05:47:19;;;;;;;;;;;24.90;50.20;;;;;;5083512;28;19912;-61
2021/07/23 05:49:44;;;;;;;;;;;24.90;50.20;;;;;;5085657;28;19912;-64
2021/07/23 05:52:10;;;;;;;;;;;24.90;50.10;;;;;;5069247;28;19912;-65
2021/07/23 05:54:36;;;;;;;;;;;25.00;50.00;;;;;;5088586;28;19999;-62
2021/07/23 05:57:07;;;;;;;;;;;25.00;50.20;;;;;;5084236;28;19912;-65
2021/07/23 05:59:32;;;;;;;;;;;25.00;50.00;;;;;;5078118;28;19916;-63
2021/07/23 06:01:58;;;;;;;;;;;25.00;50.20;;;;;;5086572;28;19934;-62
2021/07/23 06:04:23;;;;;;;;;;;25.00;50.30;;;;;;5079295;28;19955;-64
2021/07/23 06:06:49;;;;;;;;;;;25.10;50.70;;;;;;5086681;28;19908;-63
2021/07/23 06:09:16;;;;;;;;;;;25.10;51.10;;;;;;5086765;28;19923;-64
2021/07/23 06:11:41;;;;;;;;;;;25.10;50.60;;;;;;5086542;28;19912;-63
2021/07/23 06:14:07;;;;;;;;;;;25.10;50.80;;;;;;5088415;28;19965;-62
2021/07/23 06:16:32;;;;;;;;;;;25.20;50.50;;;;;;5088017;28;19912;-65
2021/07/23 06:19:00;;;;;;;;;;;25.20;50.50;;;;;;5084511;28;19997;-62
2021/07/23 06:21:26;;;;;;;;;;;25.20;50.20;;;;;;5086007;28;19912;-64
2021/07/23 06:23:52;;;;;;;;;;;25.20;50.40;;;;;;5086785;28;19919;-62
2021/07/23 06:26:18;;;;;;;;;;;25.20;50.10;;;;;;5088444;28;19965;-63
2021/07/23 06:28:43;;;;;;;;;;;25.20;50.40;;;;;;5085342;28;20006;-62
2021/07/23 06:31:10;;;;;;;;;;;25.30;50.30;;;;;;5079843;28;19950;-63
2021/07/23 06:33:35;;;;;;;;;;;25.30;50.50;;;;;;5088092;28;20223;-65
2021/07/23 06:36:01;;;;;;;;;;;25.30;50.00;;;;;;5069795;28;19994;-64
2021/07/23 06:38:26;;;;;;;;;;;25.30;50.00;;;;;;5088050;28;19912;-64
2021/07/23 06:40:53;;;;;;;;;;;25.40;50.50;;;;;;5086236;28;19915;-64
2021/07/23 06:43:19;;;;;;;;;;;25.40;50.20;;;;;;5074670;28;20038;-62
2021/07/23 06:45:51;;;;;;;;;;;25.40;50.30;;;;;;5085070;28;19974;-62
2021/07/23 06:48:17;;;;;;;;;;;25.40;49.80;;;;;;5087217;28;19908;-64
2021/07/23 06:50:42;;;;;;;;;;;25.50;50.40;;;;;;5069234;28;20371;-63
2021/07/23 06:53:08;;;;;;;;;;;25.50;50.10;;;;;;5083251;28;19916;-64
2021/07/23 06:55:34;;;;;;;;;;;25.50;49.90;;;;;;5095947;28;19937;-64
2021/07/23 06:57:59;;;;;;;;;;;25.50;49.50;;;;;;5097959;28;19904;-63
2021/07/23 07:00:25;;;;;;;;;;;25.50;49.50;;;;;;5089567;28;19912;-67
2021/07/23 07:02:50;;;;;;;;;;;25.50;49.30;;;;;;5095834;28;20305;-63
2021/07/23 07:05:17;;;;;;;;;;;25.60;49.10;;;;;;5090240;28;19939;-67
2021/07/23 07:07:42;;;;;;;;;;;25.60;49.20;;;;;;5083909;28;19970;-65
2021/07/23 07:10:08;;;;;;;;;;;25.50;49.30;;;;;;5060988;28;20371;-64
2021/07/23 07:12:33;;;;;;;;;;;25.60;49.50;;;;;;5089899;28;19919;-65
2021/07/23 07:14:59;;;;;;;;;;;25.60;49.20;;;;;;5104603;28;19916;-65
2021/07/23 07:17:28;;;;;;;;;;;25.60;49.40;;;;;;5084200;28;19919;-66
2021/07/23 07:19:54;;;;;;;;;;;25.60;49.40;;;;;;5088536;28;20023;-63
2021/07/23 07:22:19;;;;;;;;;;;25.70;49.40;;;;;;5088793;28;20015;-64
2021/07/23 07:24:45;;;;;;;;;;;25.70;49.30;;;;;;5069286;28;20219;-65
2021/07/23 07:27:13;;;;;;;;;;;25.70;49.20;;;;;;5090883;28;20317;-64
2021/07/23 07:29:38;;;;;;;;;;;25.70;49.10;;;;;;5086594;28;19911;-63
2021/07/23 07:32:06;;;;;;;;;;;25.80;49.10;;;;;;5084781;28;20359;-64
2021/07/23 07:34:34;;;;;;;;;;;25.80;49.10;;;;;;5087326;28;20046;-62
2021/07/23 07:37:00;;;;;;;;;;;25.80;49.10;;;;;;5076696;28;19919;-63
2021/07/23 07:39:26;;;;;;;;;;;25.80;49.00;;;;;;5081971;28;20295;-67
2021/07/23 07:41:51;;;;;;;;;;;25.90;49.10;;;;;;5086554;28;19916;-63
2021/07/23 07:44:17;;;;;;;;;;;25.90;49.10;;;;;;5084868;28;19908;-64
2021/07/23 07:46:42;;;;;;;;;;;25.90;49.10;;;;;;5084858;28;20367;-64
2021/07/23 07:49:08;;;;;;;;;;;25.90;49.10;;;;;;5086723;28;19911;-63
2021/07/23 07:51:33;;;;;;;;;;;25.90;49.10;;;;;;5056389;28;19979;-63
2021/07/23 07:53:59;;;;;;;;;;;25.90;49.50;;;;;;5064565;28;20377;-62
2021/07/23 07:56:24;;;;;;;;;;;25.90;49.40;;;;;;5085749;28;19961;-65
2021/07/23 07:58:50;;;;;;;;;;;25.90;49.30;;;;;;5072010;28;19916;-62
2021/07/23 08:01:15;;;;;;;;;;;26.00;49.60;;;;;;5081458;28;19912;-62
2021/07/23 08:03:41;;;;;;;;;;;26.00;49.60;;;;;;5085089;28;19915;-64
2021/07/23 08:06:21;;;;;;;;;;;26.00;49.40;;;;;;5073421;28;19909;-65
2021/07/23 08:08:48;;;;;;;;;;;26.00;49.30;;;;;;5071256;28;19908;-63
2021/07/23 08:11:14;;;;;;;;;;;26.10;49.30;;;;;;5088809;28;19935;-64
2021/07/23 08:13:39;;;;;;;;;;;26.10;49.30;;;;;;5089619;28;19943;-66
2021/07/23 08:16:05;;;;;;;;;;;26.10;49.30;;;;;;5077422;28;19908;-65
2021/07/23 08:18:30;;;;;;;;;;;26.10;49.20;;;;;;5086924;28;19951;-64
2021/07/23 08:20:56;;;;;;;;;;;26.20;49.20;;;;;;5069044;28;19911;-64
2021/07/23 08:23:21;;;;;;;;;;;26.20;49.20;;;;;;5085859;28;19916;-63
2021/07/23 08:25:47;;;;;;;;;;;26.20;49.20;;;;;;5054281;28;19908;-64
2021/07/23 08:28:13;;;;;;;;;;;26.20;49.40;;;;;;5087784;28;19954;-64
2021/07/23 08:30:39;;;;;;;;;;;26.20;49.50;;;;;;5087976;28;19959;-62
2021/07/23 08:33:04;;;;;;;;;;;26.20;49.40;;;;;;5089712;28;19934;-64
2021/07/23 08:35:31;;;;;;;;;;;26.20;49.80;;;;;;5080091;28;19942;-66
2021/07/23 08:37:56;;;;;;;;;;;26.20;49.70;;;;;;5090082;28;19943;-62
2021/07/23 08:40:22;;;;;;;;;;;26.30;49.60;;;;;;5091229;28;19981;-62
2021/07/23 08:42:47;;;;;;;;;;;26.30;49.90;;;;;;5084104;28;19911;-64
2021/07/23 08:45:13;;;;;;;;;;;26.30;49.60;;;;;;5066755;28;20370;-66
2021/07/23 08:47:38;;;;;;;;;;;26.30;49.50;;;;;;5068469;28;20118;-64
2021/07/23 08:50:05;;;;;;;;;;;26.30;49.50;;;;;;5076981;28;19915;-61
2021/07/23 08:52:41;;;;;;;;;;;26.40;49.80;;;;;;5085445;28;20022;-64
2021/07/23 08:55:13;;;;;;;;;;;26.40;49.60;;;;;;5080461;28;19922;-61
2021/07/23 08:57:39;;;;;;;;;;;26.40;49.60;;;;;;5088740;28;19941;-66
2021/07/23 09:00:09;;;;;;;;;;;26.40;49.50;;;;;;5084831;28;20422;-61
2021/07/23 09:02:48;;;;;;;;;;;26.40;49.50;;;;;;5085710;28;19912;-63
2021/07/23 09:05:14;;;;;;;;;;;26.40;49.50;;;;;;5080659;28;19912;-64
2021/07/23 09:07:40;;;;;;;;;;;26.50;49.50;;;;;;5086604;28;19973;-64
2021/07/23 09:10:06;;;;;;;;;;;26.50;49.40;;;;;;5088962;28;19904;-63
2021/07/23 09:12:50;;;;;;;;;;;26.50;49.40;;;;;;5080632;28;19916;-63
2021/07/23 09:15:16;;;;;;;;;;;26.50;49.50;;;;;;5085667;28;19912;-63
2021/07/23 09:17:42;;;;;;;;;;;26.50;49.50;;;;;;5090193;28;19918;-64
2021/07/23 09:20:08;;;;;;;;;;;26.50;49.70;;;;;;5087234;28;19912;-62
2021/07/23 09:22:46;;;;;;;;;;;26.50;49.50;;;;;;5074513;28;19992;-62
2021/07/23 09:25:13;;;;;;;;;;;26.50;49.50;;;;;;5085375;28;19923;-62
2021/07/23 09:27:38;;;;;;;;;;;26.50;49.40;;;;;;5088147;28;19935;-63
2021/07/23 09:30:07;;;;;;;;;;;26.60;49.50;;;;;;5087083;28;20370;-61
2021/07/23 09:32:33;;;;;;;;;;;26.60;49.50;;;;;;5068169;28;19947;-63
2021/07/23 09:35:08;;;;;;;;;;;26.60;49.40;;;;;;5085926;28;19920;-62
2021/07/23 09:37:51;;;;;;;;;;;26.70;49.50;;;;;;5081009;28;20007;-61
2021/07/23 09:40:16;;;;;;;;;;;26.60;49.50;;;;;;5083961;28;19908;-65
2021/07/23 09:42:42;;;;;;;;;;;26.60;49.50;;;;;;5076577;28;19981;-63
2021/07/23 09:45:07;;;;;;;;;;;26.60;49.50;;;;;;5082148;28;20365;-64
2021/07/23 09:47:33;;;;;;;;;;;26.60;49.50;;;;;;5081614;28;20006;-66
2021/07/23 09:49:58;;;;;;;;;;;26.60;49.50;;;;;;5087308;28;20374;-63
2021/07/23 09:52:24;;;;;;;;;;;26.70;49.50;;;;;;5081201;28;20007;-66
2021/07/23 09:54:53;;;;;;;;;;;26.70;49.50;;;;;;5058296;28;19943;-63
2021/07/23 09:57:22;;;;;;;;;;;26.70;49.60;;;;;;5081642;28;19966;-62
2021/07/23 09:59:57;;;;;;;;;;;26.70;49.70;;;;;;5074137;28;20706;-64
2021/07/23 10:02:23;;;;;;;;;;;26.70;49.70;;;;;;5082627;28;19926;-63
2021/07/23 10:04:55;;;;;;;;;;;26.70;49.70;;;;;;5085261;28;19908;-63
2021/07/23 10:07:23;;;;;;;;;;;26.70;49.70;;;;;;5084804;28;20332;-62
2021/07/23 10:09:50;;;;;;;;;;;26.70;49.90;;;;;;5087235;28;20379;-63
2021/07/23 10:12:17;;;;;;;;;;;26.70;50.00;;;;;;5084079;28;19915;-64
2021/07/23 10:14:44;;;;;;;;;;;26.80;49.80;;;;;;5089843;28;19927;-66
2021/07/23 10:17:10;;;;;;;;;;;26.80;49.60;;;;;;5075658;28;19928;-61
2021/07/23 10:19:36;;;;;;;;;;;26.80;49.60;;;;;;5086877;28;20339;-63
2021/07/23 10:22:02;;;;;;;;;;;26.80;49.60;;;;;;5087426;28;19958;-64
2021/07/23 10:24:31;;;;;;;;;;;26.80;49.50;;;;;;5087303;28;19912;-62
2021/07/23 10:26:57;;;;;;;;;;;26.80;49.50;;;;;;5081960;28;19908;-65
2021/07/23 10:29:43;;;;;;;;;;;26.90;49.60;;;;;;5086292;28;19961;-63
2021/07/23 10:32:24;;;;;;;;;;;26.90;49.60;;;;;;5085489;28;19958;-63
2021/07/23 10:34:50;;;;;;;;;;;26.90;49.60;;;;;;5087497;28;19955;-62
2021/07/23 10:37:35;;;;;;;;;;;26.90;49.60;;;;;;5075213;28;19912;-61
2021/07/23 10:40:07;;;;;;;;;;;26.90;49.60;;;;;;5070285;28;19911;-64
2021/07/23 10:42:33;;;;;;;;;;;27.00;49.60;;;;;;5078427;28;19973;-62
2021/07/23 10:44:59;;;;;;;;;;;26.90;49.60;;;;;;5083687;28;19958;-62
2021/07/23 10:47:36;;;;;;;;;;;27.00;49.60;;;;;;5068764;28;20358;-64
2021/07/23 10:50:02;;;;;;;;;;;27.00;49.60;;;;;;5084642;28;19992;-61
2021/07/23 10:52:28;;;;;;;;;;;27.00;49.60;;;;;;5084179;28;19955;-61
2021/07/23 10:55:13;;;;;;;;;;;27.00;49.60;;;;;;5084516;28;19919;-62
2021/07/23 10:57:39;;;;;;;;;;;27.00;49.60;;;;;;5101837;28;19915;-61
2021/07/23 11:00:05;;;;;;;;;;;27.00;49.60;;;;;;5084047;28;19916;-61
2021/07/23 11:02:30;;;;;;;;;;;27.00;49.60;;;;;;5084801;28;20419;-64
2021/07/23 11:05:05;;;;;;;;;;;27.00;49.70;;;;;;5083833;28;20331;-65
2021/07/23 11:07:31;;;;;;;;;;;27.10;49.60;;;;;;5067341;28;19963;-65
2021/07/23 11:09:57;;;;;;;;;;;27.10;49.80;;;;;;5080575;28;20565;-62
2021/07/23 11:12:23;;;;;;;;;;;27.10;49.70;;;;;;5074506;28;19916;-64
2021/07/23 11:14:52;;;;;;;;;;;27.10;49.70;;;;;;5085987;28;19955;-60
2021/07/23 11:17:17;;;;;;;;;;;27.10;49.60;;;;;;5082784;28;20255;-63
2021/07/23 11:19:51;;;;;;;;;;;27.10;49.70;;;;;;5087310;28;19913;-62
2021/07/23 11:22:25;;;;;;;;;;;27.10;49.70;;;;;;5087539;28;19995;-65
2021/07/23 11:24:54;;;;;;;;;;;27.10;49.70;;;;;;5085890;28;20272;-62
2021/07/23 11:27:30;;;;;;;;;;;27.10;49.80;;;;;;5086933;28;19994;-62
2021/07/23 11:29:56;;;;;;;;;;;27.10;49.80;;;;;;5085651;28;19930;-62
2021/07/23 11:32:22;;;;;;;;;;;27.10;49.90;;;;;;5090175;28;19943;-63
2021/07/23 11:34:48;;;;;;;;;;;27.10;50.00;;;;;;5067006;28;19959;-62
2021/07/23 11:37:23;;;;;;;;;;;27.10;50.10;;;;;;5083329;28;19912;-64
2021/07/23 11:39:51;;;;;;;;;;;27.00;50.00;;;;;;5084097;28;19912;-63
2021/07/23 11:42:17;;;;;;;;;;;27.00;50.10;;;;;;5086020;28;19908;-61
2021/07/23 11:45:15;;;;;;;;;;;27.00;50.00;;;;;;5085711;28;19923;-62
2021/07/23 11:47:44;;;;;;;;;;;27.00;50.00;;;;;;5051475;28;19934;-65
2021/07/23 11:50:11;;;;;;;;;;;27.00;50.10;;;;;;5085957;28;19908;-65
2021/07/23 11:52:37;;;;;;;;;;;27.00;50.00;;;;;;5084544;28;19916;-63
2021/07/23 11:55:03;;;;;;;;;;;27.00;50.10;;;;;;5084616;28;20392;-65
2021/07/23 11:57:29;;;;;;;;;;;27.00;50.10;;;;;;5081407;28;20006;-66
2021/07/23 11:59:55;;;;;;;;;;;27.00;50.20;;;;;;5084649;28;19942;-63
2021/07/23 12:02:24;;;;;;;;;;;26.90;50.10;;;;;;5085692;28;19931;-62
2021/07/23 12:05:07;;;;;;;;;;;26.90;50.70;;;;;;5066077;28;20018;-64
2021/07/23 12:07:33;;;;;;;;;;;26.90;50.20;;;;;;5083662;28;19955;-65
2021/07/23 12:09:59;;;;;;;;;;;26.90;50.30;;;;;;5083622;28;19922;-63
2021/07/23 12:12:25;;;;;;;;;;;26.90;50.30;;;;;;5088581;28;20422;-61
2021/07/23 12:14:50;;;;;;;;;;;26.90;50.30;;;;;;5081950;28;19915;-64
2021/07/23 12:17:16;;;;;;;;;;;26.90;50.40;;;;;;5082988;28;19919;-63
2021/07/23 12:19:41;;;;;;;;;;;26.90;50.40;;;;;;5084223;28;19916;-64
2021/07/23 12:22:10;;;;;;;;;;;26.90;50.40;;;;;;5084266;28;19923;-64
2021/07/23 12:24:36;;;;;;;;;;;26.90;51.10;;;;;;5086591;28;20423;-63
2021/07/23 12:27:18;;;;;;;;;;;27.00;50.60;;;;;;5081894;28;20012;-64
2021/07/23 12:29:44;;;;;;;;;;;27.00;50.70;;;;;;5097094;28;19908;-65
2021/07/23 12:32:14;;;;;;;;;;;27.00;50.70;;;;;;5049779;28;19947;-64
2021/07/23 12:34:41;;;;;;;;;;;27.00;50.70;;;;;;5076610;28;20065;-62
2021/07/23 12:37:21;;;;;;;;;;;27.00;50.70;;;;;;5059137;28;19974;-62
2021/07/23 12:39:50;;;;;;;;;;;27.00;50.80;;;;;;5084289;28;19912;-62
2021/07/23 12:42:19;;;;;;;;;;;27.00;50.80;;;;;;5066479;28;19912;-64
2021/07/23 12:44:45;;;;;;;;;;;27.00;50.80;;;;;;5082793;28;19937;-64
2021/07/23 12:47:14;;;;;;;;;;;27.00;50.80;;;;;;5086005;28;20410;-63
2021/07/23 12:49:40;;;;;;;;;;;27.00;50.90;;;;;;5086134;28;19923;-59
2021/07/23 12:52:06;;;;;;;;;;;27.00;51.00;;;;;;5068750;28;20568;-66
2021/07/23 12:54:36;;;;;;;;;;;27.00;51.10;;;;;;5084342;28;20258;-64
2021/07/23 12:57:11;;;;;;;;;;;27.00;51.10;;;;;;5075861;28;20347;-63
2021/07/23 12:59:37;;;;;;;;;;;27.00;51.20;;;;;;5086593;28;19930;-64
2021/07/23 13:02:02;;;;;;;;;;;27.00;51.20;;;;;;5084573;28;20271;-64
2021/07/23 13:04:28;;;;;;;;;;;27.00;51.20;;;;;;5081944;28;20370;-62
2021/07/23 13:06:53;;;;;;;;;;;27.00;51.10;;;;;;5084435;28;19916;-64
2021/07/23 13:09:19;;;;;;;;;;;27.00;51.10;;;;;;5082745;28;19912;-66
2021/07/23 13:11:44;;;;;;;;;;;27.00;51.20;;;;;;5084463;28;20058;-63
2021/07/23 13:14:10;;;;;;;;;;;27.00;51.10;;;;;;5085784;28;19915;-63
2021/07/23 13:16:35;;;;;;;;;;;27.00;51.10;;;;;;5069403;28;19953;-63
2021/07/23 13:19:01;;;;;;;;;;;27.00;51.10;;;;;;5081988;28;19912;-63
2021/07/23 13:21:26;;;;;;;;;;;27.00;51.10;;;;;;5084138;28;20023;-64
2021/07/23 13:23:52;;;;;;;;;;;27.00;51.10;;;;;;5086347;28;20414;-66
2021/07/23 13:26:18;;;;;;;;;;;27.00;51.20;;;;;;5067885;28;19945;-65
2021/07/23 13:28:44;;;;;;;;;;;27.00;51.20;;;;;;5063545;28;19911;-63
2021/07/23 13:31:09;;;;;;;;;;;27.00;51.20;;;;;;5085760;28;20223;-63
2021/07/23 13:33:35;;;;;;;;;;;27.00;51.20;;;;;;5085859;28;20006;-66
2021/07/23 13:36:04;;;;;;;;;;;27.00;51.20;;;;;;5067102;28;19908;-67
2021/07/23 13:38:32;;;;;;;;;;;27.00;51.20;;;;;;5085908;28;19911;-64
2021/07/23 13:41:02;;;;;;;;;;;27.00;51.30;;;;;;5085024;28;20007;-63
2021/07/23 13:43:27;;;;;;;;;;;27.00;51.30;;;;;;5080821;28;19916;-65
2021/07/23 13:45:53;;;;;;;;;;;27.00;51.30;;;;;;5067215;28;19919;-65
2021/07/23 13:48:19;;;;;;;;;;;27.00;51.30;;;;;;5087101;28;19916;-65
2021/07/23 13:50:45;;;;;;;;;;;27.00;51.30;;;;;;5079856;28;20384;-64
2021/07/23 13:53:10;;;;;;;;;;;27.00;51.40;;;;;;5076481;28;19927;-62
2021/07/23 13:55:38;;;;;;;;;;;27.00;51.40;;;;;;5084549;28;19954;-64
2021/07/23 13:58:05;;;;;;;;;;;27.00;51.40;;;;;;5084037;28;19916;-65
2021/07/23 14:00:31;;;;;;;;;;;27.00;51.40;;;;;;5080602;28;20328;-64
2021/07/23 14:02:56;;;;;;;;;;;27.00;51.50;;;;;;5081986;28;20015;-63
2021/07/23 14:05:22;;;;;;;;;;;27.00;51.50;;;;;;5086994;28;19920;-63
2021/07/23 14:07:49;;;;;;;;;;;27.00;51.50;;;;;;5080149;28;19917;-62
2021/07/23 14:10:15;;;;;;;;;;;27.00;51.60;;;;;;5071671;28;19912;-67
2021/07/23 14:12:40;;;;;;;;;;;27.00;52.10;;;;;;5074535;28;19989;-62
2021/07/23 14:15:07;;;;;;;;;;;27.00;51.60;;;;;;5081015;28;20387;-62